sensor_id;sensor_type;location;lat;lon;timestamp;P1;durP1;ratioP1;P2;durP2;ratioP2
10847;SDS011;5477;48.806;9.154;2024-01-27T00:01:40;3.53;;;1.73;;
10847;SDS011;5477;48.806;9.154;2024-01-27T00:04:08;2.23;;;1.33;;
10847;SDS011;5477;48.806;9.154;2024-01-27T00:06:36;6.30;;;2.20;;
10847;SDS011;5477;48.806;9.154;2024-01-27T00:09:05;2.77;;;1.30;;
10847;SDS011;5477;48.806;9.154;2024-01-27T00:11:33;3.87;;;1.70;;
10847;SDS011;5477;48.806;9.154;2024-01-27T00:14:02;2.93;;;1.90;;
10847;SDS011;5477;48.806;9.154;2024-01-27T00:16:29;5.03;;;2.10;;
10847;SDS011;5477;48.806;9.154;2024-01-27T00:18:59;2.67;;;1.60;;
10847;SDS011;5477;48.806;9.154;2024-01-27T00:21:27;4.13;;;1.70;;
10847;SDS011;5477;48.806;9.154;2024-01-27T00:23:55;2.07;;;1.60;;
10847;SDS011;5477;48.806;9.154;2024-01-27T00:26:27;3.03;;;1.60;;
10847;SDS011;5477;48.806;9.154;2024-01-27T00:28:55;4.30;;;1.50;;
10847;SDS011;5477;48.806;9.154;2024-01-27T00:31:23;2.53;;;1.60;;
10847;SDS011;5477;48.806;9.154;2024-01-27T00:33:51;3.70;;;1.60;;
10847;SDS011;5477;48.806;9.154;2024-01-27T00:36:21;2.77;;;1.90;;
10847;SDS011;5477;48.806;9.154;2024-01-27T00:38:49;3.80;;;1.60;;
10847;SDS011;5477;48.806;9.154;2024-01-27T00:41:17;2.23;;;1.53;;
10847;SDS011;5477;48.806;9.154;2024-01-27T00:43:45;3.13;;;1.63;;
10847;SDS011;5477;48.806;9.154;2024-01-27T00:46:13;5.23;;;2.80;;
10847;SDS011;5477;48.806;9.154;2024-01-27T00:48:42;3.97;;;1.90;;
10847;SDS011;5477;48.806;9.154;2024-01-27T00:51:10;4.10;;;1.77;;
10847;SDS011;5477;48.806;9.154;2024-01-27T00:53:40;3.67;;;1.40;;
10847;SDS011;5477;48.806;9.154;2024-01-27T00:56:08;5.00;;;1.50;;
10847;SDS011;5477;48.806;9.154;2024-01-27T00:58:36;3.97;;;1.73;;
10847;SDS011;5477;48.806;9.154;2024-01-27T01:01:04;2.77;;;1.47;;
10847;SDS011;5477;48.806;9.154;2024-01-27T01:03:32;5.60;;;1.70;;
10847;SDS011;5477;48.806;9.154;2024-01-27T01:06:01;4.83;;;1.90;;
10847;SDS011;5477;48.806;9.154;2024-01-27T01:08:29;2.83;;;1.70;;
10847;SDS011;5477;48.806;9.154;2024-01-27T01:10:59;5.10;;;1.67;;
10847;SDS011;5477;48.806;9.154;2024-01-27T01:13:27;3.47;;;1.77;;
10847;SDS011;5477;48.806;9.154;2024-01-27T01:15:55;3.47;;;1.93;;
10847;SDS011;5477;48.806;9.154;2024-01-27T01:18:24;4.20;;;1.60;;
10847;SDS011;5477;48.806;9.154;2024-01-27T01:20:52;2.83;;;1.40;;
10847;SDS011;5477;48.806;9.154;2024-01-27T01:23:20;2.67;;;1.60;;
10847;SDS011;5477;48.806;9.154;2024-01-27T01:25:48;4.67;;;1.73;;
10847;SDS011;5477;48.806;9.154;2024-01-27T01:28:17;2.00;;;1.50;;
10847;SDS011;5477;48.806;9.154;2024-01-27T01:30:45;2.73;;;1.57;;
10847;SDS011;5477;48.806;9.154;2024-01-27T01:33:13;2.23;;;1.40;;
10847;SDS011;5477;48.806;9.154;2024-01-27T01:35:42;4.37;;;1.73;;
10847;SDS011;5477;48.806;9.154;2024-01-27T01:38:10;3.33;;;1.50;;
10847;SDS011;5477;48.806;9.154;2024-01-27T01:40:38;2.67;;;1.47;;
10847;SDS011;5477;48.806;9.154;2024-01-27T01:43:09;3.60;;;1.77;;
10847;SDS011;5477;48.806;9.154;2024-01-27T01:45:39;3.13;;;1.60;;
10847;SDS011;5477;48.806;9.154;2024-01-27T01:48:07;3.57;;;1.63;;
10847;SDS011;5477;48.806;9.154;2024-01-27T01:50:35;2.37;;;1.60;;
10847;SDS011;5477;48.806;9.154;2024-01-27T01:53:04;5.43;;;1.70;;
10847;SDS011;5477;48.806;9.154;2024-01-27T01:55:33;5.00;;;1.90;;
10847;SDS011;5477;48.806;9.154;2024-01-27T01:58:01;4.90;;;1.77;;
10847;SDS011;5477;48.806;9.154;2024-01-27T02:00:29;6.27;;;1.73;;
10847;SDS011;5477;48.806;9.154;2024-01-27T02:02:59;3.73;;;1.73;;
10847;SDS011;5477;48.806;9.154;2024-01-27T02:05:27;2.90;;;1.53;;
10847;SDS011;5477;48.806;9.154;2024-01-27T02:07:55;2.00;;;1.50;;
10847;SDS011;5477;48.806;9.154;2024-01-27T02:10:26;2.83;;;1.70;;
10847;SDS011;5477;48.806;9.154;2024-01-27T02:12:56;6.30;;;1.80;;
10847;SDS011;5477;48.806;9.154;2024-01-27T02:15:24;3.87;;;1.70;;
10847;SDS011;5477;48.806;9.154;2024-01-27T02:17:53;3.63;;;1.90;;
10847;SDS011;5477;48.806;9.154;2024-01-27T02:20:22;2.77;;;1.50;;
10847;SDS011;5477;48.806;9.154;2024-01-27T02:22:50;4.30;;;2.27;;
10847;SDS011;5477;48.806;9.154;2024-01-27T02:25:19;4.93;;;1.53;;
10847;SDS011;5477;48.806;9.154;2024-01-27T02:27:47;2.67;;;1.53;;
10847;SDS011;5477;48.806;9.154;2024-01-27T02:30:15;3.83;;;1.47;;
10847;SDS011;5477;48.806;9.154;2024-01-27T02:32:43;2.70;;;1.60;;
10847;SDS011;5477;48.806;9.154;2024-01-27T02:35:12;3.77;;;1.60;;
10847;SDS011;5477;48.806;9.154;2024-01-27T02:37:40;3.83;;;1.53;;
10847;SDS011;5477;48.806;9.154;2024-01-27T02:40:09;2.90;;;1.67;;
10847;SDS011;5477;48.806;9.154;2024-01-27T02:42:38;2.20;;;1.60;;
10847;SDS011;5477;48.806;9.154;2024-01-27T02:45:08;4.23;;;1.70;;
10847;SDS011;5477;48.806;9.154;2024-01-27T02:47:37;3.30;;;1.70;;
10847;SDS011;5477;48.806;9.154;2024-01-27T02:50:05;4.47;;;1.50;;
10847;SDS011;5477;48.806;9.154;2024-01-27T02:52:35;4.20;;;1.63;;
10847;SDS011;5477;48.806;9.154;2024-01-27T02:55:03;4.43;;;1.57;;
10847;SDS011;5477;48.806;9.154;2024-01-27T02:57:31;3.40;;;1.60;;
10847;SDS011;5477;48.806;9.154;2024-01-27T03:00:01;2.73;;;1.43;;
10847;SDS011;5477;48.806;9.154;2024-01-27T03:02:29;6.00;;;1.47;;
10847;SDS011;5477;48.806;9.154;2024-01-27T03:04:58;3.23;;;1.60;;
10847;SDS011;5477;48.806;9.154;2024-01-27T03:07:26;4.30;;;1.93;;
10847;SDS011;5477;48.806;9.154;2024-01-27T03:09:54;3.13;;;1.63;;
10847;SDS011;5477;48.806;9.154;2024-01-27T03:12:22;3.20;;;1.63;;
10847;SDS011;5477;48.806;9.154;2024-01-27T03:14:50;4.20;;;1.93;;
10847;SDS011;5477;48.806;9.154;2024-01-27T03:17:19;3.97;;;1.60;;
10847;SDS011;5477;48.806;9.154;2024-01-27T03:19:48;5.67;;;1.80;;
10847;SDS011;5477;48.806;9.154;2024-01-27T03:22:16;7.93;;;1.87;;
10847;SDS011;5477;48.806;9.154;2024-01-27T03:24:44;4.10;;;1.97;;
10847;SDS011;5477;48.806;9.154;2024-01-27T03:27:12;5.00;;;1.60;;
10847;SDS011;5477;48.806;9.154;2024-01-27T03:29:41;4.93;;;1.90;;
10847;SDS011;5477;48.806;9.154;2024-01-27T03:32:08;4.33;;;1.70;;
10847;SDS011;5477;48.806;9.154;2024-01-27T03:34:41;5.60;;;1.90;;
10847;SDS011;5477;48.806;9.154;2024-01-27T03:37:11;5.63;;;2.33;;
10847;SDS011;5477;48.806;9.154;2024-01-27T03:39:40;4.67;;;1.90;;
10847;SDS011;5477;48.806;9.154;2024-01-27T03:42:08;5.80;;;2.00;;
10847;SDS011;5477;48.806;9.154;2024-01-27T03:44:36;4.63;;;1.70;;
10847;SDS011;5477;48.806;9.154;2024-01-27T03:47:05;3.93;;;1.97;;
10847;SDS011;5477;48.806;9.154;2024-01-27T03:49:33;3.17;;;1.80;;
10847;SDS011;5477;48.806;9.154;2024-01-27T03:52:02;3.90;;;1.70;;
10847;SDS011;5477;48.806;9.154;2024-01-27T03:54:32;5.50;;;1.90;;
10847;SDS011;5477;48.806;9.154;2024-01-27T03:57:00;4.83;;;1.93;;
10847;SDS011;5477;48.806;9.154;2024-01-27T03:59:28;4.60;;;2.10;;
10847;SDS011;5477;48.806;9.154;2024-01-27T04:01:56;4.37;;;2.13;;
10847;SDS011;5477;48.806;9.154;2024-01-27T04:04:24;4.20;;;1.60;;
10847;SDS011;5477;48.806;9.154;2024-01-27T04:06:52;7.53;;;2.00;;
10847;SDS011;5477;48.806;9.154;2024-01-27T04:09:22;5.17;;;2.00;;
10847;SDS011;5477;48.806;9.154;2024-01-27T04:11:50;6.07;;;2.00;;
10847;SDS011;5477;48.806;9.154;2024-01-27T04:14:19;7.83;;;1.90;;
10847;SDS011;5477;48.806;9.154;2024-01-27T04:16:47;4.53;;;2.00;;
10847;SDS011;5477;48.806;9.154;2024-01-27T04:19:15;4.63;;;1.63;;
10847;SDS011;5477;48.806;9.154;2024-01-27T04:21:43;6.13;;;2.10;;
10847;SDS011;5477;48.806;9.154;2024-01-27T04:24:11;6.57;;;2.13;;
10847;SDS011;5477;48.806;9.154;2024-01-27T04:26:41;3.63;;;1.97;;
10847;SDS011;5477;48.806;9.154;2024-01-27T04:29:09;3.97;;;1.97;;
10847;SDS011;5477;48.806;9.154;2024-01-27T04:31:41;5.03;;;1.80;;
10847;SDS011;5477;48.806;9.154;2024-01-27T04:34:09;4.53;;;2.07;;
10847;SDS011;5477;48.806;9.154;2024-01-27T04:36:37;4.87;;;1.80;;
10847;SDS011;5477;48.806;9.154;2024-01-27T04:39:05;6.17;;;2.00;;
10847;SDS011;5477;48.806;9.154;2024-01-27T04:41:33;3.77;;;1.90;;
10847;SDS011;5477;48.806;9.154;2024-01-27T04:44:03;2.33;;;2.00;;
10847;SDS011;5477;48.806;9.154;2024-01-27T04:46:50;6.60;;;2.00;;
10847;SDS011;5477;48.806;9.154;2024-01-27T04:49:19;6.80;;;1.90;;
10847;SDS011;5477;48.806;9.154;2024-01-27T04:51:47;4.83;;;1.90;;
10847;SDS011;5477;48.806;9.154;2024-01-27T04:54:15;4.57;;;2.17;;
10847;SDS011;5477;48.806;9.154;2024-01-27T04:56:43;7.13;;;2.20;;
10847;SDS011;5477;48.806;9.154;2024-01-27T04:59:12;6.53;;;2.50;;
10847;SDS011;5477;48.806;9.154;2024-01-27T05:01:43;4.07;;;1.90;;
10847;SDS011;5477;48.806;9.154;2024-01-27T05:04:14;6.37;;;2.00;;
10847;SDS011;5477;48.806;9.154;2024-01-27T05:07:09;5.07;;;2.20;;
10847;SDS011;5477;48.806;9.154;2024-01-27T05:09:37;4.83;;;1.90;;
10847;SDS011;5477;48.806;9.154;2024-01-27T05:12:06;4.43;;;2.10;;
10847;SDS011;5477;48.806;9.154;2024-01-27T05:14:35;4.47;;;1.90;;
10847;SDS011;5477;48.806;9.154;2024-01-27T05:17:03;3.57;;;1.80;;
10847;SDS011;5477;48.806;9.154;2024-01-27T05:19:31;5.67;;;1.93;;
10847;SDS011;5477;48.806;9.154;2024-01-27T05:21:59;4.90;;;1.80;;
10847;SDS011;5477;48.806;9.154;2024-01-27T05:24:28;4.37;;;1.80;;
10847;SDS011;5477;48.806;9.154;2024-01-27T05:26:57;5.37;;;2.00;;
10847;SDS011;5477;48.806;9.154;2024-01-27T05:29:25;3.07;;;2.00;;
10847;SDS011;5477;48.806;9.154;2024-01-27T05:31:56;4.97;;;2.20;;
10847;SDS011;5477;48.806;9.154;2024-01-27T05:34:24;4.77;;;2.00;;
10847;SDS011;5477;48.806;9.154;2024-01-27T05:36:52;5.03;;;2.00;;
10847;SDS011;5477;48.806;9.154;2024-01-27T05:39:20;7.17;;;2.00;;
10847;SDS011;5477;48.806;9.154;2024-01-27T05:41:48;6.07;;;2.30;;
10847;SDS011;5477;48.806;9.154;2024-01-27T05:44:17;3.53;;;2.00;;
10847;SDS011;5477;48.806;9.154;2024-01-27T05:46:45;8.57;;;2.20;;
10847;SDS011;5477;48.806;9.154;2024-01-27T05:49:14;4.43;;;1.90;;
10847;SDS011;5477;48.806;9.154;2024-01-27T05:51:42;5.10;;;2.47;;
10847;SDS011;5477;48.806;9.154;2024-01-27T05:54:10;5.47;;;2.17;;
10847;SDS011;5477;48.806;9.154;2024-01-27T05:56:41;2.73;;;1.70;;
10847;SDS011;5477;48.806;9.154;2024-01-27T05:59:09;7.17;;;1.80;;
10847;SDS011;5477;48.806;9.154;2024-01-27T06:01:37;3.70;;;1.90;;
10847;SDS011;5477;48.806;9.154;2024-01-27T06:04:07;7.07;;;2.20;;
10847;SDS011;5477;48.806;9.154;2024-01-27T06:06:38;4.40;;;2.40;;
10847;SDS011;5477;48.806;9.154;2024-01-27T06:09:07;6.53;;;2.10;;
10847;SDS011;5477;48.806;9.154;2024-01-27T06:11:38;3.57;;;1.93;;
10847;SDS011;5477;48.806;9.154;2024-01-27T06:14:06;3.40;;;1.93;;
10847;SDS011;5477;48.806;9.154;2024-01-27T06:16:34;5.43;;;2.00;;
10847;SDS011;5477;48.806;9.154;2024-01-27T06:19:02;5.27;;;2.00;;
10847;SDS011;5477;48.806;9.154;2024-01-27T06:21:30;3.60;;;1.93;;
10847;SDS011;5477;48.806;9.154;2024-01-27T06:24:00;5.93;;;1.90;;
10847;SDS011;5477;48.806;9.154;2024-01-27T06:26:28;5.20;;;2.10;;
10847;SDS011;5477;48.806;9.154;2024-01-27T06:28:56;5.23;;;2.13;;
10847;SDS011;5477;48.806;9.154;2024-01-27T06:31:24;6.00;;;2.17;;
10847;SDS011;5477;48.806;9.154;2024-01-27T06:33:52;5.10;;;1.90;;
10847;SDS011;5477;48.806;9.154;2024-01-27T06:36:20;7.40;;;2.03;;
10847;SDS011;5477;48.806;9.154;2024-01-27T06:38:51;4.37;;;2.40;;
10847;SDS011;5477;48.806;9.154;2024-01-27T06:41:20;8.20;;;2.20;;
10847;SDS011;5477;48.806;9.154;2024-01-27T06:43:48;5.83;;;2.60;;
10847;SDS011;5477;48.806;9.154;2024-01-27T06:46:16;6.47;;;2.60;;
10847;SDS011;5477;48.806;9.154;2024-01-27T06:48:44;3.80;;;2.40;;
10847;SDS011;5477;48.806;9.154;2024-01-27T06:51:12;8.07;;;2.17;;
10847;SDS011;5477;48.806;9.154;2024-01-27T06:53:40;5.77;;;2.43;;
10847;SDS011;5477;48.806;9.154;2024-01-27T06:56:08;3.90;;;2.10;;
10847;SDS011;5477;48.806;9.154;2024-01-27T06:58:37;7.23;;;2.10;;
10847;SDS011;5477;48.806;9.154;2024-01-27T07:01:06;5.20;;;2.17;;
10847;SDS011;5477;48.806;9.154;2024-01-27T07:03:35;5.40;;;2.50;;
10847;SDS011;5477;48.806;9.154;2024-01-27T07:06:06;7.27;;;2.60;;
10847;SDS011;5477;48.806;9.154;2024-01-27T07:08:34;4.47;;;2.47;;
10847;SDS011;5477;48.806;9.154;2024-01-27T07:11:04;5.17;;;2.73;;
10847;SDS011;5477;48.806;9.154;2024-01-27T07:13:32;4.23;;;2.90;;
10847;SDS011;5477;48.806;9.154;2024-01-27T07:16:02;4.63;;;2.67;;
10847;SDS011;5477;48.806;9.154;2024-01-27T07:18:30;4.90;;;2.50;;
10847;SDS011;5477;48.806;9.154;2024-01-27T07:21:01;6.77;;;3.60;;
10847;SDS011;5477;48.806;9.154;2024-01-27T07:23:34;4.83;;;2.83;;
10847;SDS011;5477;48.806;9.154;2024-01-27T07:26:02;6.30;;;2.70;;
10847;SDS011;5477;48.806;9.154;2024-01-27T07:28:30;4.90;;;2.70;;
10847;SDS011;5477;48.806;9.154;2024-01-27T07:30:58;6.13;;;2.70;;
10847;SDS011;5477;48.806;9.154;2024-01-27T07:33:28;6.23;;;2.70;;
10847;SDS011;5477;48.806;9.154;2024-01-27T07:35:56;4.37;;;2.40;;
10847;SDS011;5477;48.806;9.154;2024-01-27T07:38:25;3.83;;;2.30;;
10847;SDS011;5477;48.806;9.154;2024-01-27T07:40:53;8.20;;;2.73;;
10847;SDS011;5477;48.806;9.154;2024-01-27T07:43:21;4.77;;;2.50;;
10847;SDS011;5477;48.806;9.154;2024-01-27T07:45:49;7.30;;;2.93;;
10847;SDS011;5477;48.806;9.154;2024-01-27T07:48:18;5.87;;;2.80;;
10847;SDS011;5477;48.806;9.154;2024-01-27T07:50:48;9.13;;;2.97;;
10847;SDS011;5477;48.806;9.154;2024-01-27T07:53:17;9.57;;;3.03;;
10847;SDS011;5477;48.806;9.154;2024-01-27T07:55:45;6.03;;;2.80;;
10847;SDS011;5477;48.806;9.154;2024-01-27T07:58:13;5.53;;;2.80;;
10847;SDS011;5477;48.806;9.154;2024-01-27T08:00:41;8.90;;;3.00;;
10847;SDS011;5477;48.806;9.154;2024-01-27T08:03:09;7.33;;;2.93;;
10847;SDS011;5477;48.806;9.154;2024-01-27T08:05:37;7.93;;;2.80;;
10847;SDS011;5477;48.806;9.154;2024-01-27T08:08:07;6.53;;;3.90;;
10847;SDS011;5477;48.806;9.154;2024-01-27T08:10:35;6.13;;;3.63;;
10847;SDS011;5477;48.806;9.154;2024-01-27T08:13:03;4.03;;;2.33;;
10847;SDS011;5477;48.806;9.154;2024-01-27T08:15:31;6.33;;;2.50;;
10847;SDS011;5477;48.806;9.154;2024-01-27T08:17:59;7.30;;;3.23;;
10847;SDS011;5477;48.806;9.154;2024-01-27T08:20:27;7.23;;;2.80;;
10847;SDS011;5477;48.806;9.154;2024-01-27T08:22:55;5.93;;;2.80;;
10847;SDS011;5477;48.806;9.154;2024-01-27T08:25:24;7.73;;;2.80;;
10847;SDS011;5477;48.806;9.154;2024-01-27T08:27:52;6.57;;;2.80;;
10847;SDS011;5477;48.806;9.154;2024-01-27T08:30:20;9.83;;;2.93;;
10847;SDS011;5477;48.806;9.154;2024-01-27T08:32:48;6.53;;;3.20;;
10847;SDS011;5477;48.806;9.154;2024-01-27T08:35:16;7.63;;;2.80;;
10847;SDS011;5477;48.806;9.154;2024-01-27T08:37:45;7.40;;;3.17;;
10847;SDS011;5477;48.806;9.154;2024-01-27T08:40:13;5.33;;;2.73;;
10847;SDS011;5477;48.806;9.154;2024-01-27T08:42:42;5.77;;;2.77;;
10847;SDS011;5477;48.806;9.154;2024-01-27T08:45:11;7.63;;;3.10;;
10847;SDS011;5477;48.806;9.154;2024-01-27T08:47:39;10.33;;;3.63;;
10847;SDS011;5477;48.806;9.154;2024-01-27T08:50:07;6.57;;;3.80;;
10847;SDS011;5477;48.806;9.154;2024-01-27T08:52:37;9.87;;;4.00;;
10847;SDS011;5477;48.806;9.154;2024-01-27T08:55:06;7.90;;;4.50;;
10847;SDS011;5477;48.806;9.154;2024-01-27T08:57:35;10.23;;;4.70;;
10847;SDS011;5477;48.806;9.154;2024-01-27T09:00:05;7.97;;;4.30;;
10847;SDS011;5477;48.806;9.154;2024-01-27T09:02:34;10.80;;;4.40;;
10847;SDS011;5477;48.806;9.154;2024-01-27T09:05:02;6.73;;;4.43;;
10847;SDS011;5477;48.806;9.154;2024-01-27T09:07:30;6.43;;;4.37;;
10847;SDS011;5477;48.806;9.154;2024-01-27T09:09:58;9.10;;;4.00;;
10847;SDS011;5477;48.806;9.154;2024-01-27T09:12:26;9.50;;;4.27;;
10847;SDS011;5477;48.806;9.154;2024-01-27T09:14:54;7.37;;;4.20;;
10847;SDS011;5477;48.806;9.154;2024-01-27T09:17:24;6.67;;;3.80;;
10847;SDS011;5477;48.806;9.154;2024-01-27T09:19:52;9.40;;;3.90;;
10847;SDS011;5477;48.806;9.154;2024-01-27T09:22:20;14.83;;;4.37;;
10847;SDS011;5477;48.806;9.154;2024-01-27T09:24:48;10.30;;;4.33;;
10847;SDS011;5477;48.806;9.154;2024-01-27T09:27:18;11.73;;;4.60;;
10847;SDS011;5477;48.806;9.154;2024-01-27T09:29:46;7.73;;;3.93;;
10847;SDS011;5477;48.806;9.154;2024-01-27T09:32:14;9.83;;;4.17;;
10847;SDS011;5477;48.806;9.154;2024-01-27T09:34:44;8.60;;;4.37;;
10847;SDS011;5477;48.806;9.154;2024-01-27T09:37:12;9.33;;;4.40;;
10847;SDS011;5477;48.806;9.154;2024-01-27T09:39:40;9.00;;;3.87;;
10847;SDS011;5477;48.806;9.154;2024-01-27T09:42:08;11.83;;;4.90;;
10847;SDS011;5477;48.806;9.154;2024-01-27T09:44:42;9.60;;;4.20;;
10847;SDS011;5477;48.806;9.154;2024-01-27T09:47:11;10.83;;;4.23;;
10847;SDS011;5477;48.806;9.154;2024-01-27T09:49:40;9.87;;;3.73;;
10847;SDS011;5477;48.806;9.154;2024-01-27T09:52:10;11.63;;;4.10;;
10847;SDS011;5477;48.806;9.154;2024-01-27T09:54:39;12.30;;;5.17;;
10847;SDS011;5477;48.806;9.154;2024-01-27T09:57:08;11.03;;;4.90;;
10847;SDS011;5477;48.806;9.154;2024-01-27T09:59:38;7.33;;;4.67;;
10847;SDS011;5477;48.806;9.154;2024-01-27T10:02:11;6.93;;;4.27;;
10847;SDS011;5477;48.806;9.154;2024-01-27T10:04:39;7.67;;;4.47;;
10847;SDS011;5477;48.806;9.154;2024-01-27T10:07:11;10.27;;;4.17;;
10847;SDS011;5477;48.806;9.154;2024-01-27T10:09:41;10.23;;;4.70;;
10847;SDS011;5477;48.806;9.154;2024-01-27T10:12:09;10.47;;;4.27;;
10847;SDS011;5477;48.806;9.154;2024-01-27T10:14:40;11.80;;;4.57;;
10847;SDS011;5477;48.806;9.154;2024-01-27T10:17:10;8.87;;;4.20;;
10847;SDS011;5477;48.806;9.154;2024-01-27T10:19:39;9.13;;;4.47;;
10847;SDS011;5477;48.806;9.154;2024-01-27T10:22:12;12.13;;;4.50;;
10847;SDS011;5477;48.806;9.154;2024-01-27T10:24:40;7.90;;;4.33;;
10847;SDS011;5477;48.806;9.154;2024-01-27T10:27:09;10.17;;;4.33;;
10847;SDS011;5477;48.806;9.154;2024-01-27T10:29:37;8.57;;;4.30;;
10847;SDS011;5477;48.806;9.154;2024-01-27T10:32:08;8.90;;;4.17;;
10847;SDS011;5477;48.806;9.154;2024-01-27T10:34:37;7.67;;;4.07;;
10847;SDS011;5477;48.806;9.154;2024-01-27T10:37:05;9.60;;;3.80;;
10847;SDS011;5477;48.806;9.154;2024-01-27T10:39:35;12.47;;;4.50;;
10847;SDS011;5477;48.806;9.154;2024-01-27T10:42:03;7.77;;;4.00;;
10847;SDS011;5477;48.806;9.154;2024-01-27T10:44:33;9.70;;;4.17;;
10847;SDS011;5477;48.806;9.154;2024-01-27T10:47:04;9.00;;;4.10;;
10847;SDS011;5477;48.806;9.154;2024-01-27T10:49:35;9.30;;;4.30;;
10847;SDS011;5477;48.806;9.154;2024-01-27T10:52:06;6.37;;;3.63;;
10847;SDS011;5477;48.806;9.154;2024-01-27T10:54:40;8.83;;;4.17;;
10847;SDS011;5477;48.806;9.154;2024-01-27T10:57:09;7.70;;;3.90;;
10847;SDS011;5477;48.806;9.154;2024-01-27T10:59:39;5.20;;;3.53;;
10847;SDS011;5477;48.806;9.154;2024-01-27T11:02:08;8.53;;;4.00;;
10847;SDS011;5477;48.806;9.154;2024-01-27T11:04:40;9.40;;;4.27;;
10847;SDS011;5477;48.806;9.154;2024-01-27T11:07:10;8.50;;;3.90;;
10847;SDS011;5477;48.806;9.154;2024-01-27T11:09:40;7.67;;;3.50;;
10847;SDS011;5477;48.806;9.154;2024-01-27T11:12:10;9.17;;;4.00;;
10847;SDS011;5477;48.806;9.154;2024-01-27T11:14:39;7.30;;;3.40;;
10847;SDS011;5477;48.806;9.154;2024-01-27T11:17:08;10.43;;;3.97;;
10847;SDS011;5477;48.806;9.154;2024-01-27T11:19:37;6.73;;;3.77;;
10847;SDS011;5477;48.806;9.154;2024-01-27T11:22:06;6.63;;;3.67;;
10847;SDS011;5477;48.806;9.154;2024-01-27T11:24:34;8.67;;;3.60;;
10847;SDS011;5477;48.806;9.154;2024-01-27T11:27:04;7.93;;;4.33;;
10847;SDS011;5477;48.806;9.154;2024-01-27T11:29:33;8.77;;;4.00;;
10847;SDS011;5477;48.806;9.154;2024-01-27T11:32:03;7.90;;;3.60;;
10847;SDS011;5477;48.806;9.154;2024-01-27T11:34:41;8.87;;;3.87;;
10847;SDS011;5477;48.806;9.154;2024-01-27T11:37:14;7.23;;;3.40;;
10847;SDS011;5477;48.806;9.154;2024-01-27T11:39:43;8.83;;;4.00;;
10847;SDS011;5477;48.806;9.154;2024-01-27T11:42:13;6.87;;;4.00;;
10847;SDS011;5477;48.806;9.154;2024-01-27T11:44:42;7.57;;;4.13;;
10847;SDS011;5477;48.806;9.154;2024-01-27T11:47:14;9.40;;;3.57;;
10847;SDS011;5477;48.806;9.154;2024-01-27T11:49:43;9.03;;;4.07;;
10847;SDS011;5477;48.806;9.154;2024-01-27T11:52:17;9.87;;;4.43;;
10847;SDS011;5477;48.806;9.154;2024-01-27T11:54:45;8.80;;;4.40;;
10847;SDS011;5477;48.806;9.154;2024-01-27T11:57:14;6.23;;;3.40;;
10847;SDS011;5477;48.806;9.154;2024-01-27T11:59:43;7.53;;;3.87;;
10847;SDS011;5477;48.806;9.154;2024-01-27T12:02:11;9.37;;;3.80;;
10847;SDS011;5477;48.806;9.154;2024-01-27T12:04:39;10.53;;;3.93;;
10847;SDS011;5477;48.806;9.154;2024-01-27T12:07:07;11.07;;;4.27;;
10847;SDS011;5477;48.806;9.154;2024-01-27T12:09:35;7.83;;;3.90;;
10847;SDS011;5477;48.806;9.154;2024-01-27T12:12:04;9.20;;;3.50;;
10847;SDS011;5477;48.806;9.154;2024-01-27T12:14:40;10.43;;;3.40;;
10847;SDS011;5477;48.806;9.154;2024-01-27T12:17:10;10.27;;;3.70;;
10847;SDS011;5477;48.806;9.154;2024-01-27T12:19:38;7.10;;;3.43;;
10847;SDS011;5477;48.806;9.154;2024-01-27T12:22:20;10.17;;;3.80;;
10847;SDS011;5477;48.806;9.154;2024-01-27T12:24:49;8.03;;;3.50;;
10847;SDS011;5477;48.806;9.154;2024-01-27T12:27:17;10.80;;;3.50;;
10847;SDS011;5477;48.806;9.154;2024-01-27T12:29:47;9.80;;;3.53;;
10847;SDS011;5477;48.806;9.154;2024-01-27T12:32:16;7.10;;;3.43;;
10847;SDS011;5477;48.806;9.154;2024-01-27T12:34:45;6.70;;;3.30;;
10847;SDS011;5477;48.806;9.154;2024-01-27T12:37:14;8.23;;;3.20;;
10847;SDS011;5477;48.806;9.154;2024-01-27T12:39:43;8.43;;;3.67;;
10847;SDS011;5477;48.806;9.154;2024-01-27T12:42:12;7.80;;;3.43;;
10847;SDS011;5477;48.806;9.154;2024-01-27T12:44:40;5.30;;;3.10;;
10847;SDS011;5477;48.806;9.154;2024-01-27T12:47:10;5.73;;;3.40;;
10847;SDS011;5477;48.806;9.154;2024-01-27T12:49:39;8.13;;;3.47;;
10847;SDS011;5477;48.806;9.154;2024-01-27T12:52:08;6.97;;;3.43;;
10847;SDS011;5477;48.806;9.154;2024-01-27T12:54:36;6.97;;;2.77;;
10847;SDS011;5477;48.806;9.154;2024-01-27T12:57:04;5.00;;;3.10;;
10847;SDS011;5477;48.806;9.154;2024-01-27T12:59:34;4.77;;;2.63;;
10847;SDS011;5477;48.806;9.154;2024-01-27T13:02:02;7.93;;;3.17;;
10847;SDS011;5477;48.806;9.154;2024-01-27T13:04:32;7.93;;;3.00;;
10847;SDS011;5477;48.806;9.154;2024-01-27T13:07:00;7.23;;;3.03;;
10847;SDS011;5477;48.806;9.154;2024-01-27T13:09:28;7.67;;;3.23;;
10847;SDS011;5477;48.806;9.154;2024-01-27T13:11:56;8.23;;;3.10;;
10847;SDS011;5477;48.806;9.154;2024-01-27T13:14:24;5.60;;;2.90;;
10847;SDS011;5477;48.806;9.154;2024-01-27T13:16:52;10.10;;;3.23;;
10847;SDS011;5477;48.806;9.154;2024-01-27T13:19:21;6.63;;;3.10;;
10847;SDS011;5477;48.806;9.154;2024-01-27T13:21:50;5.77;;;3.13;;
10847;SDS011;5477;48.806;9.154;2024-01-27T13:24:19;5.33;;;2.90;;
10847;SDS011;5477;48.806;9.154;2024-01-27T13:26:47;6.20;;;2.53;;
10847;SDS011;5477;48.806;9.154;2024-01-27T13:29:15;6.17;;;2.97;;
10847;SDS011;5477;48.806;9.154;2024-01-27T13:31:43;4.00;;;2.70;;
10847;SDS011;5477;48.806;9.154;2024-01-27T13:34:11;6.43;;;3.20;;
10847;SDS011;5477;48.806;9.154;2024-01-27T13:36:41;7.17;;;2.60;;
10847;SDS011;5477;48.806;9.154;2024-01-27T13:39:10;7.37;;;2.63;;
10847;SDS011;5477;48.806;9.154;2024-01-27T13:41:38;6.53;;;2.70;;
10847;SDS011;5477;48.806;9.154;2024-01-27T13:44:07;6.17;;;2.33;;
10847;SDS011;5477;48.806;9.154;2024-01-27T13:46:36;3.97;;;2.20;;
10847;SDS011;5477;48.806;9.154;2024-01-27T13:49:04;7.37;;;2.40;;
10847;SDS011;5477;48.806;9.154;2024-01-27T13:51:32;5.80;;;2.10;;
10847;SDS011;5477;48.806;9.154;2024-01-27T13:54:01;4.27;;;2.20;;
10847;SDS011;5477;48.806;9.154;2024-01-27T13:56:30;4.73;;;2.47;;
10847;SDS011;5477;48.806;9.154;2024-01-27T13:58:59;6.90;;;2.57;;
10847;SDS011;5477;48.806;9.154;2024-01-27T14:01:27;8.30;;;3.03;;
10847;SDS011;5477;48.806;9.154;2024-01-27T14:03:55;6.10;;;2.30;;
10847;SDS011;5477;48.806;9.154;2024-01-27T14:06:24;4.17;;;2.00;;
10847;SDS011;5477;48.806;9.154;2024-01-27T14:08:52;4.40;;;1.90;;
10847;SDS011;5477;48.806;9.154;2024-01-27T14:11:20;5.90;;;2.50;;
10847;SDS011;5477;48.806;9.154;2024-01-27T14:13:50;7.60;;;2.50;;
10847;SDS011;5477;48.806;9.154;2024-01-27T14:16:18;6.37;;;2.60;;
10847;SDS011;5477;48.806;9.154;2024-01-27T14:18:47;6.27;;;2.40;;
10847;SDS011;5477;48.806;9.154;2024-01-27T14:21:15;5.43;;;2.40;;
10847;SDS011;5477;48.806;9.154;2024-01-27T14:23:43;6.33;;;2.87;;
10847;SDS011;5477;48.806;9.154;2024-01-27T14:26:12;9.97;;;3.30;;
10847;SDS011;5477;48.806;9.154;2024-01-27T14:28:41;8.23;;;3.50;;
10847;SDS011;5477;48.806;9.154;2024-01-27T14:31:12;8.53;;;4.00;;
10847;SDS011;5477;48.806;9.154;2024-01-27T14:33:41;6.90;;;4.10;;
10847;SDS011;5477;48.806;9.154;2024-01-27T14:36:09;9.10;;;3.17;;
10847;SDS011;5477;48.806;9.154;2024-01-27T14:38:38;7.60;;;3.47;;
10847;SDS011;5477;48.806;9.154;2024-01-27T14:41:07;11.23;;;4.07;;
10847;SDS011;5477;48.806;9.154;2024-01-27T14:43:35;9.00;;;3.70;;
10847;SDS011;5477;48.806;9.154;2024-01-27T14:46:05;7.97;;;3.23;;
10847;SDS011;5477;48.806;9.154;2024-01-27T14:48:34;6.30;;;3.30;;
10847;SDS011;5477;48.806;9.154;2024-01-27T14:51:03;5.83;;;3.60;;
10847;SDS011;5477;48.806;9.154;2024-01-27T14:53:32;9.20;;;3.13;;
10847;SDS011;5477;48.806;9.154;2024-01-27T14:56:01;7.03;;;3.30;;
10847;SDS011;5477;48.806;9.154;2024-01-27T14:58:29;7.37;;;3.63;;
10847;SDS011;5477;48.806;9.154;2024-01-27T15:00:57;8.33;;;3.67;;
10847;SDS011;5477;48.806;9.154;2024-01-27T15:03:26;7.80;;;3.90;;
10847;SDS011;5477;48.806;9.154;2024-01-27T15:05:55;8.17;;;3.40;;
10847;SDS011;5477;48.806;9.154;2024-01-27T15:08:25;6.23;;;3.17;;
10847;SDS011;5477;48.806;9.154;2024-01-27T15:10:54;8.63;;;5.37;;